createdAt,value
2019-02-17T00:01:31.062Z,23.50
2019-02-17T00:06:21.949Z,21.13
2019-02-17T00:11:12.998Z,16.10
2019-02-17T00:16:03.888Z,16.80
2019-02-17T00:20:54.801Z,17.77
2019-02-17T00:25:45.689Z,17.73
2019-02-17T00:30:37.325Z,17.13
2019-02-17T00:35:28.957Z,17.97
2019-02-17T00:40:19.850Z,16.12
2019-02-17T00:45:10.747Z,15.35
2019-02-17T00:50:01.670Z,19.17
2019-02-17T00:54:52.565Z,20.17
2019-02-17T00:59:43.465Z,14.97
2019-02-17T01:04:35.110Z,24.53
2019-02-17T01:09:26.029Z,13.77
2019-02-17T01:14:16.933Z,12.97
2019-02-17T01:19:08.599Z,15.53
2019-02-17T01:23:59.815Z,12.07
2019-02-17T01:28:50.722Z,15.77
2019-02-17T01:33:41.637Z,13.82
2019-02-17T01:38:33.287Z,14.30
2019-02-17T01:43:24.208Z,11.93
2019-02-17T01:48:15.109Z,11.10
2019-02-17T01:53:06.749Z,10.37
2019-02-17T01:57:58.401Z,11.60
2019-02-17T02:02:49.293Z,12.03
2019-02-17T02:07:40.934Z,12.07
2019-02-17T02:12:32.583Z,14.43
2019-02-17T02:17:23.494Z,14.40
2019-02-17T02:22:14.401Z,11.35
2019-02-17T02:27:06.040Z,11.00
2019-02-17T02:31:57.692Z,10.43
2019-02-17T02:36:48.593Z,11.53
2019-02-17T02:41:40.255Z,10.43
2019-02-17T02:46:31.148Z,10.17
2019-02-17T02:51:22.802Z,10.63
2019-02-17T02:56:13.704Z,9.60
2019-02-17T03:01:05.346Z,12.20
2019-02-17T03:06:00.277Z,12.50
2019-02-17T03:10:51.177Z,13.23
2019-02-17T03:15:42.081Z,11.20
2019-02-17T03:20:33.734Z,11.10
2019-02-17T03:25:24.637Z,10.37
2019-02-17T03:30:16.298Z,9.80
2019-02-17T03:35:07.199Z,11.13
2019-02-17T03:39:58.854Z,13.40
2019-02-17T03:44:49.779Z,9.37
2019-02-17T03:49:40.690Z,13.30
2019-02-17T03:54:31.601Z,10.00
2019-02-17T03:59:22.508Z,10.48
2019-02-17T04:04:14.156Z,9.43
2019-02-17T04:09:05.061Z,11.32
2019-02-17T04:13:56.793Z,10.00
2019-02-17T04:18:47.641Z,9.63
2019-02-17T04:23:38.534Z,8.83
2019-02-17T04:28:30.193Z,9.00
2019-02-17T04:33:21.104Z,8.80
2019-02-17T04:38:12.016Z,17.60
2019-02-17T04:43:02.945Z,10.47
2019-02-17T04:47:54.595Z,8.33
2019-02-17T04:52:45.493Z,9.57
2019-02-17T04:57:36.392Z,8.82
2019-02-17T05:02:28.035Z,7.97
2019-02-17T05:07:19.687Z,9.50
2019-02-17T05:12:10.612Z,9.67
2019-02-17T05:17:01.527Z,8.80
2019-02-17T05:21:52.443Z,8.20
2019-02-17T05:26:43.347Z,12.43
2019-02-17T05:31:34.258Z,8.53
2019-02-17T05:36:25.934Z,7.53
2019-02-17T05:41:16.850Z,10.30
2019-02-17T05:46:07.757Z,10.17
2019-02-17T05:50:58.675Z,12.60
2019-02-17T05:55:49.607Z,9.70
2019-02-17T06:00:40.530Z,8.63
2019-02-17T06:05:31.439Z,9.47
2019-02-17T06:10:22.352Z,9.43
2019-02-17T06:15:13.246Z,9.20
2019-02-17T06:20:04.886Z,8.77
2019-02-17T06:24:55.804Z,8.23
2019-02-17T06:29:49.069Z,11.13
2019-02-17T06:34:38.382Z,11.53
2019-02-17T06:39:29.302Z,9.23
2019-02-17T06:44:20.211Z,8.67
2019-02-17T06:49:11.864Z,10.13
2019-02-17T06:54:02.769Z,12.73
2019-02-17T06:58:53.700Z,10.73
2019-02-17T07:03:44.619Z,10.33
2019-02-17T07:08:35.557Z,13.20
2019-02-17T07:13:26.468Z,9.10
2019-02-17T07:18:17.384Z,8.70
2019-02-17T07:23:08.300Z,9.10
2019-02-17T07:27:59.207Z,9.90
2019-02-17T07:32:50.247Z,9.17
2019-02-17T07:37:41.165Z,9.40
2019-02-17T07:42:32.112Z,11.27
2019-02-17T07:47:23.038Z,10.30
2019-02-17T07:52:13.960Z,9.67
2019-02-17T07:57:04.865Z,10.27
2019-02-17T08:01:55.773Z,10.00
2019-02-17T08:06:46.699Z,8.23
2019-02-17T08:11:37.615Z,10.03
2019-02-17T08:16:28.531Z,12.07
2019-02-17T08:21:19.440Z,10.13
2019-02-17T08:26:10.351Z,10.90
2019-02-17T08:31:01.253Z,10.00
2019-02-17T08:35:52.145Z,11.73
2019-02-17T08:40:43.046Z,11.90
2019-02-17T08:45:34.061Z,9.17
2019-02-17T08:50:24.962Z,12.87
2019-02-17T08:55:16.605Z,9.27
2019-02-17T09:00:09.308Z,10.27
2019-02-17T09:05:00.321Z,12.80
2019-02-17T09:09:51.299Z,9.87
2019-02-17T09:14:42.230Z,10.83
2019-02-17T09:19:33.255Z,13.33
2019-02-17T09:24:24.161Z,15.23
2019-02-17T09:29:15.089Z,14.17
2019-02-17T09:34:05.995Z,13.80
2019-02-17T09:38:56.911Z,17.80
2019-02-17T09:43:48.088Z,14.30
2019-02-17T09:48:38.806Z,15.40
2019-02-17T09:53:29.732Z,16.67
2019-02-17T09:58:20.646Z,17.90
2019-02-17T10:03:12.071Z,16.40
2019-02-17T10:08:02.991Z,18.80
2019-02-17T10:12:53.896Z,17.23
2019-02-17T10:17:45.543Z,18.23
2019-02-17T10:22:37.190Z,18.10
2019-02-17T10:27:28.110Z,17.10
2019-02-17T10:32:19.031Z,13.33
2019-02-17T10:37:10.008Z,20.43
2019-02-17T10:42:01.664Z,20.53
2019-02-17T10:46:52.667Z,15.30
2019-02-17T10:51:44.368Z,14.77
2019-02-17T10:56:35.281Z,16.27
2019-02-17T11:01:26.203Z,19.83
2019-02-17T11:06:17.122Z,20.60
2019-02-17T11:11:08.037Z,23.93
2019-02-17T11:15:58.941Z,19.10
2019-02-17T11:20:49.893Z,21.50
2019-02-17T11:25:42.281Z,19.90
2019-02-17T11:30:33.933Z,18.33
2019-02-17T11:35:24.843Z,24.30
2019-02-17T11:40:15.756Z,17.75
2019-02-17T11:45:10.444Z,19.07
2019-02-17T11:50:02.124Z,18.40
2019-02-17T11:54:53.040Z,18.97
2019-02-17T11:59:43.964Z,14.60
2019-02-17T12:04:34.882Z,14.43
2019-02-17T12:09:25.821Z,20.80
2019-02-17T12:14:16.754Z,24.23
2019-02-17T12:19:07.691Z,15.85
2019-02-17T12:24:04.863Z,15.53
2019-02-17T12:28:56.518Z,16.37
2019-02-17T12:33:47.421Z,16.70
2019-02-17T12:38:39.091Z,16.43
2019-02-17T12:43:30.051Z,15.25
2019-02-17T12:48:20.970Z,14.68
2019-02-17T12:53:11.869Z,12.80
2019-02-17T12:58:02.788Z,12.80
2019-02-17T13:02:53.706Z,14.10
2019-02-17T13:07:44.607Z,12.20
2019-02-17T13:12:35.538Z,15.40
2019-02-17T13:17:26.477Z,17.50
2019-02-17T13:22:17.398Z,13.53
2019-02-17T13:27:09.034Z,14.27
2019-02-17T13:31:59.951Z,13.50
2019-02-17T13:36:50.854Z,14.03
2019-02-17T13:41:41.764Z,13.83
2019-02-17T13:46:32.926Z,13.07
2019-02-17T13:51:23.820Z,13.17
2019-02-17T13:56:14.732Z,14.90
2019-02-17T14:01:05.633Z,12.13
2019-02-17T14:06:03.599Z,11.37
2019-02-17T14:10:54.520Z,12.60
2019-02-17T14:15:45.425Z,12.73
2019-02-17T14:20:37.065Z,19.53
2019-02-17T14:25:28.713Z,11.60
2019-02-17T14:30:19.613Z,10.57
2019-02-17T14:35:11.286Z,16.00
2019-02-17T14:40:02.246Z,12.00
2019-02-17T14:44:53.894Z,12.67
2019-02-17T14:49:45.566Z,13.10
2019-02-17T14:54:37.827Z,11.13
2019-02-17T14:59:28.821Z,13.47
2019-02-17T15:04:19.722Z,12.20
2019-02-17T15:09:11.365Z,11.65
2019-02-17T15:14:03.037Z,11.87
2019-02-17T15:18:53.941Z,11.70
2019-02-17T15:23:44.846Z,17.73
2019-02-17T15:28:35.763Z,14.20
2019-02-17T15:33:26.678Z,20.93
2019-02-17T15:38:18.342Z,18.58
2019-02-17T15:43:09.271Z,30.57
2019-02-17T15:48:00.174Z,25.73
2019-02-17T15:52:51.085Z,19.43
2019-02-17T15:57:42.015Z,12.00
2019-02-17T16:02:32.926Z,24.10
2019-02-17T16:07:23.839Z,22.58
2019-02-17T16:12:14.753Z,17.00
2019-02-17T16:17:05.657Z,19.57
2019-02-17T16:21:58.221Z,21.53
2019-02-17T16:26:49.869Z,13.67
2019-02-17T16:31:40.777Z,18.80
2019-02-17T16:36:32.428Z,25.57
2019-02-17T16:41:23.359Z,21.27
2019-02-17T16:46:14.283Z,21.67
2019-02-17T16:51:05.187Z,17.83
2019-02-17T16:55:56.143Z,18.63
2019-02-17T17:00:47.076Z,20.42
2019-02-17T17:05:38.005Z,16.07
2019-02-17T17:10:29.054Z,17.02
2019-02-17T17:15:20.008Z,15.40
2019-02-17T17:20:11.775Z,19.50
2019-02-17T17:25:02.687Z,17.73
2019-02-17T17:29:53.588Z,21.40
2019-02-17T17:34:44.493Z,17.00
2019-02-17T17:39:35.407Z,17.45
2019-02-17T17:44:26.344Z,12.40
2019-02-17T17:49:19.459Z,19.20
2019-02-17T17:54:08.909Z,24.23
2019-02-17T17:58:59.832Z,18.10
2019-02-17T18:03:50.739Z,22.23
2019-02-17T18:08:41.666Z,15.40
2019-02-17T18:13:32.630Z,17.17
2019-02-17T18:18:24.849Z,16.90
2019-02-17T18:23:15.511Z,15.83
2019-02-17T18:28:06.429Z,14.73
2019-02-17T18:32:57.343Z,15.70
2019-02-17T18:37:48.247Z,20.03
2019-02-17T18:42:39.908Z,17.67
2019-02-17T18:47:30.809Z,19.70
2019-02-17T18:52:21.727Z,21.73
2019-02-17T18:57:12.655Z,13.33
2019-02-17T19:02:03.583Z,15.80
2019-02-17T19:06:54.503Z,13.55
2019-02-17T19:11:45.423Z,14.57
2019-02-17T19:16:37.039Z,17.87
2019-02-17T19:21:28.009Z,13.93
2019-02-17T19:26:19.069Z,12.43
2019-02-17T19:31:10.713Z,14.63
2019-02-17T19:36:01.702Z,14.13
2019-02-17T19:40:52.615Z,13.83
2019-02-17T19:45:43.530Z,14.10
2019-02-17T19:50:34.997Z,18.37
2019-02-17T19:55:26.645Z,16.20
2019-02-17T20:00:18.474Z,13.83
2019-02-17T20:05:10.467Z,13.30
2019-02-17T20:10:01.991Z,14.70
2019-02-17T20:14:52.904Z,12.90
2019-02-17T20:19:43.829Z,15.87
2019-02-17T20:24:34.759Z,14.98
2019-02-17T20:29:25.688Z,14.70
2019-02-17T20:34:16.621Z,16.37
2019-02-17T20:39:08.273Z,14.37
2019-02-17T20:43:59.947Z,16.43
2019-02-17T20:48:52.446Z,14.27
2019-02-17T20:53:41.795Z,15.57
2019-02-17T20:58:32.730Z,15.50
2019-02-17T21:03:23.653Z,15.30
2019-02-17T21:08:14.686Z,13.43
2019-02-17T21:13:05.599Z,15.70
2019-02-17T21:17:56.862Z,16.73
2019-02-17T21:22:47.766Z,14.20
2019-02-17T21:27:39.441Z,16.70
2019-02-17T21:32:30.525Z,20.97
2019-02-17T21:37:21.483Z,14.87
2019-02-17T21:42:12.732Z,15.17
2019-02-17T21:47:04.452Z,15.80
2019-02-17T21:51:55.850Z,14.87
2019-02-17T21:56:46.792Z,14.87
2019-02-17T22:01:37.703Z,15.93
2019-02-17T22:06:33.551Z,15.53
2019-02-17T22:11:20.467Z,16.73
2019-02-17T22:16:11.487Z,16.20
2019-02-17T22:21:02.393Z,16.67
2019-02-17T22:25:54.429Z,15.37
2019-02-17T22:30:46.200Z,15.37
2019-02-17T22:35:37.483Z,16.03
2019-02-17T22:40:29.153Z,17.00
2019-02-17T22:45:20.087Z,13.70
2019-02-17T22:50:11.004Z,19.90
2019-02-17T22:55:01.947Z,13.03
2019-02-17T23:05:11.878Z,13.52
2019-02-17T23:10:03.526Z,14.95
2019-02-17T23:14:54.449Z,15.87
2019-02-17T23:19:45.343Z,16.43
2019-02-17T23:24:36.996Z,18.70
2019-02-17T23:29:27.890Z,15.00
2019-02-17T23:34:19.545Z,12.30
2019-02-17T23:39:11.183Z,16.60
2019-02-17T23:44:02.095Z,16.80
2019-02-17T23:48:53.743Z,15.03
2019-02-17T23:53:44.663Z,14.52
2019-02-17T23:58:35.567Z,14.10
